Time;durP1;ratioP1;P1;durP2;ratioP2;P2;SDS_P1;SDS_P2;PMS_P1;PMS_P2;Temp;Humidity;BMP_temperature;BMP_pressure;BME280_temperature;BME280_humidity;BME280_pressure;Samples;Min_cycle;Max_cycle;Signal;HPM_P1;HPM_P2
2022/11/21 00:00:52;;;;;;;18.52;13.50;;;3.10;99.90;;;;;;6064298;23;92457;-73
2022/11/21 00:03:19;;;;;;;21.23;13.23;;;3.10;99.90;;;;;;6064858;23;95763;-73
2022/11/21 00:05:48;;;;;;;19.73;14.05;;;3.10;99.90;;;;;;6065896;23;95418;-73
2022/11/21 00:08:16;;;;;;;23.13;15.30;;;3.20;99.90;;;;;;6040906;23;92536;-73
2022/11/21 00:10:44;;;;;;;22.58;15.50;;;3.20;99.90;;;;;;6066384;23;92417;-73
2022/11/21 00:13:19;;;;;;;22.92;15.73;;;3.20;99.90;;;;;;6039916;23;96414;-73
2022/11/21 00:15:47;;;;;;;21.65;13.27;;;3.20;99.90;;;;;;6064584;23;95589;-73
2022/11/21 00:18:14;;;;;;;23.38;15.07;;;3.20;99.90;;;;;;6064967;23;93019;-74
2022/11/21 00:20:42;;;;;;;22.98;15.25;;;3.20;99.90;;;;;;6065261;23;91789;-73
2022/11/21 00:23:09;;;;;;;21.25;13.73;;;3.20;99.90;;;;;;6064066;23;95599;-73
2022/11/21 00:25:37;;;;;;;18.05;13.27;;;3.20;99.90;;;;;;6064760;23;93065;-73
2022/11/21 00:28:05;;;;;;;23.60;14.60;;;3.20;99.90;;;;;;6063151;23;95831;-73
2022/11/21 00:30:32;;;;;;;21.77;14.30;;;3.20;99.90;;;;;;6064450;23;92451;-73
2022/11/21 00:32:59;;;;;;;21.60;14.38;;;3.20;99.90;;;;;;6064507;23;92524;-73
2022/11/21 00:35:26;;;;;;;23.33;14.93;;;3.20;99.90;;;;;;6064181;23;102062;-73
2022/11/21 00:37:53;;;;;;;23.33;15.20;;;3.20;99.90;;;;;;6064534;23;92377;-73
2022/11/21 00:40:20;;;;;;;23.42;15.77;;;3.20;99.90;;;;;;6064561;23;92445;-73
2022/11/21 00:42:47;;;;;;;23.48;14.75;;;3.20;99.90;;;;;;6066128;23;93259;-73
2022/11/21 00:45:14;;;;;;;24.17;14.25;;;3.20;99.90;;;;;;6064640;23;95783;-73
2022/11/21 00:47:45;;;;;;;21.90;14.25;;;3.30;99.90;;;;;;6064817;23;92480;-73
2022/11/21 00:50:12;;;;;;;25.52;15.45;;;3.20;99.90;;;;;;6065951;23;92392;-73
2022/11/21 00:52:39;;;;;;;21.85;14.38;;;3.20;99.90;;;;;;6063025;23;95638;-73
2022/11/21 00:55:06;;;;;;;24.35;15.27;;;3.20;99.90;;;;;;6065519;23;95453;-73
2022/11/21 00:57:33;;;;;;;20.70;15.18;;;3.30;99.90;;;;;;6065797;23;92291;-73
2022/11/21 01:00:00;;;;;;;22.10;14.25;;;3.30;99.90;;;;;;6065845;23;92363;-73
2022/11/21 01:02:27;;;;;;;20.52;14.93;;;3.20;99.90;;;;;;6064156;23;95016;-73
2022/11/21 01:04:54;;;;;;;20.75;14.85;;;3.20;99.90;;;;;;6064428;23;92962;-73
2022/11/21 01:07:21;;;;;;;21.55;14.98;;;3.30;99.90;;;;;;6066083;23;92307;-73
2022/11/21 01:09:48;;;;;;;25.20;15.05;;;3.20;99.90;;;;;;6066569;23;91558;-73
2022/11/21 01:12:15;;;;;;;24.02;15.50;;;3.20;99.90;;;;;;6063374;23;111367;-73
2022/11/21 01:14:41;;;;;;;21.63;15.75;;;3.20;99.90;;;;;;6064142;23;95475;-73
2022/11/21 01:17:08;;;;;;;20.13;14.50;;;3.20;99.90;;;;;;6062848;23;94879;-73
2022/11/21 01:19:35;;;;;;;21.83;15.32;;;3.20;99.90;;;;;;6064644;23;93159;-73
2022/11/21 01:22:02;;;;;;;20.25;14.05;;;3.20;99.90;;;;;;6064147;23;93184;-73
2022/11/21 01:24:29;;;;;;;23.50;15.02;;;3.10;99.90;;;;;;6065864;23;93213;-73
2022/11/21 01:26:56;;;;;;;22.10;15.05;;;3.10;99.90;;;;;;6064320;23;92496;-73
2022/11/21 01:29:23;;;;;;;21.63;15.57;;;3.00;99.90;;;;;;6064280;23;92450;-73
2022/11/21 01:31:50;;;;;;;21.17;14.85;;;3.00;99.90;;;;;;6039995;23;95603;-73
2022/11/21 01:34:17;;;;;;;23.60;15.55;;;2.90;99.90;;;;;;6064168;23;95319;-73
2022/11/21 01:36:44;;;;;;;21.02;15.00;;;2.80;99.90;;;;;;6064515;23;92404;-73
2022/11/21 01:39:11;;;;;;;23.13;15.38;;;2.70;99.90;;;;;;6065199;23;92393;-73
2022/11/21 01:41:43;;;;;;;25.50;15.63;;;2.70;99.90;;;;;;6062600;23;101232;-73
2022/11/21 01:44:22;;;;;;;21.40;15.93;;;2.60;99.90;;;;;;6065578;23;95448;-73
2022/11/21 01:46:50;;;;;;;25.85;16.40;;;2.50;99.90;;;;;;6064575;23;92460;-73
2022/11/21 01:49:24;;;;;;;27.55;16.48;;;2.40;99.90;;;;;;6040291;23;93149;-73
2022/11/21 01:51:54;;;;;;;23.08;15.98;;;2.30;99.90;;;;;;6064155;23;96464;-73
2022/11/21 01:54:37;;;;;;;23.38;16.30;;;2.20;99.90;;;;;;6063619;23;95583;-73
2022/11/21 01:57:12;;;;;;;25.70;16.63;;;2.10;99.90;;;;;;6064240;23;92929;-73
2022/11/21 01:59:46;;;;;;;23.02;16.05;;;2.10;99.90;;;;;;6064798;23;91757;-73
2022/11/21 02:02:16;;;;;;;25.90;17.05;;;2.00;99.90;;;;;;6065537;23;93181;-73
2022/11/21 02:04:44;;;;;;;26.80;16.50;;;1.90;99.90;;;;;;6064138;23;95476;-73
2022/11/21 02:07:13;;;;;;;25.35;15.77;;;1.90;99.90;;;;;;6062294;23;94739;-73
2022/11/21 02:09:44;;;;;;;23.15;15.95;;;1.80;99.90;;;;;;6065283;23;92425;-73
2022/11/21 02:12:27;;;;;;;28.08;16.80;;;1.80;99.90;;;;;;6065399;23;93146;-73
2022/11/21 02:14:55;;;;;;;26.55;16.25;;;1.70;99.90;;;;;;6063959;23;95551;-73
2022/11/21 02:17:22;;;;;;;27.58;16.55;;;1.60;99.90;;;;;;6065571;23;92340;-73
2022/11/21 02:19:56;;;;;;;23.48;14.98;;;1.60;99.90;;;;;;6064528;23;92378;-73
2022/11/21 02:22:32;;;;;;;22.52;15.50;;;1.50;99.90;;;;;;6063935;23;95740;-73
2022/11/21 02:25:03;;;;;;;28.20;16.73;;;1.50;99.90;;;;;;6064502;23;94829;-73
2022/11/21 02:27:30;;;;;;;27.90;17.10;;;1.40;99.90;;;;;;6065892;23;92713;-73
2022/11/21 02:29:57;;;;;;;27.15;16.38;;;1.40;99.90;;;;;;6065818;23;92474;-73
2022/11/21 02:32:35;;;;;;;25.92;17.25;;;1.30;99.90;;;;;;6037654;23;106231;-73
2022/11/21 02:35:02;;;;;;;25.92;16.08;;;1.30;99.90;;;;;;6063779;23;98017;-73
2022/11/21 02:37:31;;;;;;;29.30;17.77;;;1.30;99.90;;;;;;6063676;23;96186;-73
2022/11/21 02:40:02;;;;;;;25.77;16.48;;;1.30;99.90;;;;;;6063817;23;92821;-73
2022/11/21 02:42:58;;;;;;;27.00;17.75;;;1.20;99.90;;;;;;6064037;23;92930;-73
2022/11/21 02:45:39;;;;;;;26.27;17.33;;;1.30;99.90;;;;;;6063820;23;95486;-73
2022/11/21 02:48:06;;;;;;;26.67;16.35;;;1.20;99.90;;;;;;6064241;23;92410;-73
2022/11/21 02:50:36;;;;;;;23.30;16.08;;;1.20;99.90;;;;;;6065391;23;109493;-73
2022/11/21 02:53:04;;;;;;;24.02;15.32;;;1.20;99.90;;;;;;6065477;23;93181;-73
2022/11/21 02:55:31;;;;;;;24.30;15.60;;;1.30;99.90;;;;;;6063238;23;95516;-73
2022/11/21 02:57:59;;;;;;;25.92;15.98;;;1.30;99.90;;;;;;6062558;23;95309;-73
2022/11/21 03:00:31;;;;;;;28.77;17.75;;;1.30;99.90;;;;;;6065459;23;92318;-73
2022/11/21 03:02:58;;;;;;;28.48;17.13;;;1.30;99.90;;;;;;6063931;23;92800;-73
2022/11/21 03:05:25;;;;;;;29.10;17.98;;;1.30;99.90;;;;;;6063576;23;95755;-73
2022/11/21 03:07:52;;;;;;;26.88;17.27;;;1.30;99.90;;;;;;6065592;23;92323;-73
2022/11/21 03:10:19;;;;;;;26.05;17.05;;;1.40;99.90;;;;;;6063598;23;92492;-73
2022/11/21 03:12:46;;;;;;;27.70;17.70;;;1.40;99.90;;;;;;6063910;23;93051;-73
2022/11/21 03:15:14;;;;;;;29.30;17.38;;;1.50;99.90;;;;;;6063684;23;95646;-73
2022/11/21 03:17:42;;;;;;;25.85;16.48;;;1.50;99.90;;;;;;6065382;23;92321;-73
2022/11/21 03:20:09;;;;;;;26.60;17.85;;;1.50;99.90;;;;;;6039306;23;92454;-73
2022/11/21 03:22:36;;;;;;;27.60;17.35;;;1.60;99.90;;;;;;6063438;23;96481;-73
2022/11/21 03:25:04;;;;;;;27.00;18.33;;;1.60;99.90;;;;;;6065148;23;95345;-73
2022/11/21 03:27:31;;;;;;;27.30;16.75;;;1.70;99.90;;;;;;6065204;23;92427;-73
2022/11/21 03:29:57;;;;;;;28.20;16.38;;;1.70;99.90;;;;;;6065421;23;92356;-73
2022/11/21 03:32:24;;;;;;;26.27;17.27;;;1.80;99.90;;;;;;6063228;23;94242;-73
2022/11/21 03:34:52;;;;;;;29.20;17.77;;;1.70;99.90;;;;;;6065053;23;93045;-73
2022/11/21 03:37:19;;;;;;;28.95;18.55;;;1.70;99.90;;;;;;6063548;23;92424;-73
2022/11/21 03:39:46;;;;;;;24.60;16.42;;;1.70;99.90;;;;;;6063800;23;92282;-73
2022/11/21 03:42:13;;;;;;;28.35;17.33;;;1.80;99.90;;;;;;6015319;23;95790;-73
2022/11/21 03:44:40;;;;;;;27.58;17.05;;;1.70;99.90;;;;;;6039199;23;93036;-73
2022/11/21 03:47:07;;;;;;;24.45;15.98;;;1.70;99.90;;;;;;6063721;23;94829;-73
2022/11/21 03:49:34;;;;;;;26.35;16.52;;;1.70;99.90;;;;;;6064374;23;106367;-73
2022/11/21 03:52:01;;;;;;;24.88;15.93;;;1.60;99.90;;;;;;6063537;23;93222;-73
2022/11/21 03:54:28;;;;;;;22.77;16.35;;;1.60;99.90;;;;;;6038985;23;93009;-73
2022/11/21 03:56:55;;;;;;;26.35;16.70;;;1.50;99.90;;;;;;6065132;23;92298;-73
2022/11/21 03:59:22;;;;;;;27.48;17.73;;;1.50;99.90;;;;;;6063240;23;93016;-73
2022/11/21 04:01:49;;;;;;;25.75;16.67;;;1.50;99.90;;;;;;6063193;23;94308;-73
2022/11/21 04:04:16;;;;;;;25.05;16.15;;;1.50;99.90;;;;;;6065339;23;93004;-73
2022/11/21 04:06:43;;;;;;;29.20;16.63;;;1.50;99.90;;;;;;6064780;23;92310;-73
2022/11/21 04:09:09;;;;;;;28.80;16.92;;;1.50;99.90;;;;;;6063281;23;92404;-73
2022/11/21 04:11:36;;;;;;;23.42;16.50;;;1.60;99.90;;;;;;6061591;23;95683;-73
2022/11/21 04:14:03;;;;;;;30.55;17.67;;;1.60;99.90;;;;;;6064701;23;95307;-73
2022/11/21 04:16:30;;;;;;;24.55;16.00;;;1.60;99.90;;;;;;6062833;23;92561;-73
2022/11/21 04:18:57;;;;;;;29.33;17.10;;;1.70;99.90;;;;;;6063345;23;92456;-73
2022/11/21 04:21:24;;;;;;;27.70;16.98;;;1.70;99.90;;;;;;6064617;23;93072;-73
2022/11/21 04:23:51;;;;;;;28.65;17.42;;;1.70;99.90;;;;;;6063237;23;92845;-73
2022/11/21 04:26:18;;;;;;;25.38;17.27;;;1.70;99.90;;;;;;6063120;23;92445;-73
2022/11/21 04:28:46;;;;;;;28.95;17.27;;;1.70;99.90;;;;;;6065041;23;91690;-73
2022/11/21 04:31:12;;;;;;;24.02;15.80;;;1.80;99.90;;;;;;6063231;23;93083;-73
2022/11/21 04:33:39;;;;;;;23.52;16.05;;;1.80;99.90;;;;;;6065823;23;93142;-73
2022/11/21 04:36:07;;;;;;;28.75;17.08;;;1.90;99.90;;;;;;6063186;23;94927;-73
2022/11/21 04:38:35;;;;;;;28.40;17.85;;;1.90;99.90;;;;;;6064726;23;98650;-73
2022/11/21 04:41:01;;;;;;;28.20;16.17;;;1.90;99.90;;;;;;6065869;23;98613;-73
2022/11/21 04:43:28;;;;;;;25.95;18.02;;;1.90;99.90;;;;;;6065818;23;92898;-73
2022/11/21 04:45:55;;;;;;;28.75;19.20;;;1.80;99.90;;;;;;6064472;23;92382;-73
2022/11/21 04:48:23;;;;;;;30.52;18.45;;;1.80;99.90;;;;;;6040425;23;92923;-73
2022/11/21 04:50:50;;;;;;;30.30;18.77;;;1.70;99.90;;;;;;6066005;23;93103;-73
2022/11/21 04:53:17;;;;;;;28.83;17.88;;;1.70;99.90;;;;;;6064733;23;95445;-73
2022/11/21 04:55:44;;;;;;;29.67;18.45;;;1.70;99.90;;;;;;6064324;23;92512;-73
2022/11/21 04:58:11;;;;;;;31.60;18.35;;;1.60;99.90;;;;;;6066273;23;92379;-73
2022/11/21 05:00:37;;;;;;;28.27;17.63;;;1.60;99.90;;;;;;6062714;23;95554;-73
2022/11/21 05:03:05;;;;;;;28.02;18.48;;;1.60;99.90;;;;;;6065836;23;95461;-73
2022/11/21 05:05:32;;;;;;;29.85;18.75;;;1.60;99.90;;;;;;6066023;23;92508;-73
2022/11/21 05:07:59;;;;;;;28.98;17.80;;;1.60;99.90;;;;;;6064619;23;92470;-73
2022/11/21 05:10:26;;;;;;;29.02;18.27;;;1.60;99.90;;;;;;6064450;23;93196;-73
2022/11/21 05:15:44;;;;;;;27.38;17.60;;;1.70;99.90;;;;;;6065859;23;93199;-73
2022/11/21 05:18:11;;;;;;;31.52;18.15;;;1.70;99.90;;;;;;6064763;23;91756;-73
2022/11/21 05:20:38;;;;;;;29.63;17.90;;;1.60;99.90;;;;;;6063778;23;95785;-73
2022/11/21 05:23:05;;;;;;;28.45;19.15;;;1.60;99.90;;;;;;6064376;23;92983;-73
2022/11/21 05:25:32;;;;;;;31.23;19.25;;;1.60;99.90;;;;;;6062582;23;94794;-73
2022/11/21 05:27:59;;;;;;;29.90;18.05;;;1.50;99.90;;;;;;6064534;23;92433;-73
2022/11/21 05:30:26;;;;;;;30.27;17.98;;;1.50;99.90;;;;;;6064133;23;95789;-73
2022/11/21 05:32:53;;;;;;;30.13;18.15;;;1.50;99.90;;;;;;6065583;23;93030;-73
2022/11/21 05:35:20;;;;;;;31.25;18.80;;;1.40;99.90;;;;;;6064112;23;92466;-73
2022/11/21 05:37:46;;;;;;;30.20;19.05;;;1.40;99.90;;;;;;6064269;23;92435;-73
2022/11/21 05:40:14;;;;;;;33.75;19.63;;;1.30;99.90;;;;;;6063903;23;93033;-73
2022/11/21 05:45:28;;;;;;;34.65;20.77;;;1.20;99.90;;;;;;6066015;23;92374;-73
2022/11/21 05:47:55;;;;;;;30.33;17.85;;;1.10;99.90;;;;;;6065877;23;92871;-73
2022/11/21 05:50:22;;;;;;;34.72;20.60;;;1.00;99.90;;;;;;6063770;23;105789;-73
2022/11/21 05:52:49;;;;;;;34.35;20.85;;;1.00;99.90;;;;;;6063893;23;95617;-73
2022/11/21 05:55:16;;;;;;;37.47;20.92;;;1.00;99.90;;;;;;6040123;23;92380;-73
2022/11/21 05:57:43;;;;;;;35.63;21.10;;;1.00;99.90;;;;;;6064175;23;92464;-73
2022/11/21 06:00:10;;;;;;;39.15;21.98;;;1.00;99.90;;;;;;6065685;23;92458;-73
2022/11/21 06:05:23;;;;;;;32.50;20.20;;;1.00;99.90;;;;;;6065867;23;92535;-73
2022/11/21 06:07:49;;;;;;;37.90;21.98;;;0.90;99.90;;;;;;6064574;23;91681;-73
2022/11/21 06:10:16;;;;;;;34.53;20.30;;;1.00;99.90;;;;;;6063935;23;94275;-73
2022/11/21 06:12:43;;;;;;;34.17;20.75;;;1.00;99.90;;;;;;6065587;23;92948;-73
2022/11/21 06:15:10;;;;;;;33.28;20.58;;;1.00;99.90;;;;;;6064266;23;94843;-73
2022/11/21 06:17:37;;;;;;;36.42;20.88;;;0.90;99.90;;;;;;6064103;23;93088;-73
2022/11/21 06:20:04;;;;;;;35.15;20.10;;;0.90;99.90;;;;;;6039237;23;107200;-73
2022/11/21 06:22:31;;;;;;;33.95;19.92;;;0.90;99.90;;;;;;6064339;23;93047;-73
2022/11/21 06:24:58;;;;;;;32.38;20.85;;;0.90;99.90;;;;;;6063827;23;92460;-73
2022/11/21 06:27:27;;;;;;;36.30;20.58;;;0.80;99.90;;;;;;6064022;23;92497;-73
2022/11/21 06:29:54;;;;;;;36.63;21.23;;;0.80;99.90;;;;;;6065563;23;93267;-73
2022/11/21 06:32:21;;;;;;;38.63;21.05;;;0.70;99.90;;;;;;6064482;23;91879;-73
2022/11/21 06:34:47;;;;;;;32.42;20.58;;;0.70;99.90;;;;;;6063914;23;92480;-73
2022/11/21 06:37:14;;;;;;;34.20;20.95;;;0.70;99.90;;;;;;6065659;23;92896;-73
2022/11/21 06:39:41;;;;;;;36.22;21.30;;;0.60;99.90;;;;;;6063279;23;95528;-73
2022/11/21 06:42:08;;;;;;;38.50;22.50;;;0.60;99.90;;;;;;6063500;23;98284;-73
2022/11/21 06:44:35;;;;;;;41.78;22.63;;;0.50;99.90;;;;;;6063876;23;92420;-73
2022/11/21 06:47:02;;;;;;;37.22;21.25;;;0.50;99.90;;;;;;6065425;23;92422;-73
2022/11/21 06:49:29;;;;;;;41.45;22.75;;;0.50;99.90;;;;;;6065431;23;92418;-73
2022/11/21 06:51:56;;;;;;;40.38;22.25;;;0.40;99.90;;;;;;6063583;23;92641;-73
2022/11/21 06:54:22;;;;;;;39.90;23.50;;;0.40;99.90;;;;;;6065077;23;92316;-73
2022/11/21 06:56:52;;;;;;;41.20;23.40;;;0.40;99.90;;;;;;6064248;23;91727;-73
2022/11/21 06:59:18;;;;;;;41.50;22.27;;;0.40;99.90;;;;;;6063530;23;95645;-73
2022/11/21 07:01:45;;;;;;;42.10;21.92;;;0.30;99.90;;;;;;6063588;23;92722;-73
2022/11/21 07:04:12;;;;;;;37.92;20.50;;;0.30;99.90;;;;;;6062665;23;94933;-73
2022/11/21 07:06:39;;;;;;;38.45;21.60;;;0.30;99.90;;;;;;6065466;23;92383;-73
2022/11/21 07:09:06;;;;;;;46.95;21.60;;;0.30;99.90;;;;;;6062809;23;110031;-73
2022/11/21 07:11:53;;;;;;;37.83;22.45;;;0.30;99.90;;;;;;6063332;23;95630;-73
2022/11/21 07:14:20;;;;;;;38.35;22.85;;;0.30;99.90;;;;;;6065424;23;92460;-73
2022/11/21 07:16:47;;;;;;;36.60;21.15;;;0.30;99.90;;;;;;6063627;23;92545;-73
2022/11/21 07:19:14;;;;;;;38.17;21.40;;;0.30;99.90;;;;;;6063382;23;95726;-73
2022/11/21 07:21:41;;;;;;;33.67;20.70;;;0.30;99.90;;;;;;6063994;23;94056;-73
2022/11/21 07:24:08;;;;;;;43.78;22.95;;;0.30;99.90;;;;;;6063571;23;92520;-73
2022/11/21 07:26:35;;;;;;;39.95;24.63;;;0.30;99.90;;;;;;6065353;23;92463;-73
2022/11/21 07:29:02;;;;;;;38.95;22.15;;;0.40;99.90;;;;;;6063496;23;95543;-73
2022/11/21 07:31:29;;;;;;;34.75;21.35;;;0.40;99.90;;;;;;6064986;23;95421;-73
2022/11/21 07:33:56;;;;;;;38.95;22.33;;;0.40;99.90;;;;;;6065000;23;92325;-73
2022/11/21 07:36:23;;;;;;;33.28;21.35;;;0.50;99.90;;;;;;6063740;23;92818;-73
2022/11/21 07:38:50;;;;;;;34.28;20.58;;;0.50;99.90;;;;;;6064630;23;93065;-73
2022/11/21 07:41:17;;;;;;;34.15;21.45;;;0.50;99.90;;;;;;6063013;23;92910;-73
2022/11/21 07:43:43;;;;;;;33.42;19.88;;;0.50;99.90;;;;;;6063368;23;92397;-73
2022/11/21 07:46:10;;;;;;;35.40;21.60;;;0.60;99.90;;;;;;6065415;23;91582;-73
2022/11/21 07:48:37;;;;;;;37.38;23.48;;;0.60;99.90;;;;;;6065009;23;93935;-73
2022/11/21 07:51:05;;;;;;;35.97;22.08;;;0.60;99.90;;;;;;6063016;23;95592;-73
2022/11/21 07:53:32;;;;;;;36.00;22.70;;;0.60;99.90;;;;;;6062228;23;94867;-73
2022/11/21 07:55:59;;;;;;;37.72;22.45;;;0.60;99.90;;;;;;6063218;23;92498;-74
2022/11/21 07:58:26;;;;;;;39.42;22.17;;;0.70;99.90;;;;;;6039447;23;93314;-73
2022/11/21 08:00:53;;;;;;;36.63;22.33;;;0.80;99.90;;;;;;6062903;23;94299;-73
2022/11/21 08:03:21;;;;;;;37.47;21.50;;;0.80;99.90;;;;;;6039378;23;92407;-73
2022/11/21 08:05:48;;;;;;;34.03;19.77;;;0.90;99.90;;;;;;6063757;23;92941;-73
2022/11/21 08:08:15;;;;;;;35.80;21.67;;;0.90;99.90;;;;;;6065857;23;93244;-73
2022/11/21 08:10:44;;;;;;;36.08;19.80;;;0.90;99.90;;;;;;6065119;23;92795;-73
2022/11/21 08:13:12;;;;;;;34.78;19.45;;;0.90;99.90;;;;;;6066111;23;92395;-73
2022/11/21 08:15:39;;;;;;;32.60;19.98;;;1.00;99.90;;;;;;6064883;23;92505;-73
2022/11/21 08:18:17;;;;;;;34.85;22.20;;;1.00;99.90;;;;;;6038476;23;98004;-73
2022/11/21 08:20:44;;;;;;;38.50;22.65;;;1.10;99.90;;;;;;6066049;23;95308;-73
2022/11/21 08:23:11;;;;;;;33.55;21.13;;;1.10;99.90;;;;;;6065736;23;95986;-73
2022/11/21 08:25:40;;;;;;;33.92;22.17;;;1.10;99.90;;;;;;6066225;23;92379;-73
2022/11/21 08:28:09;;;;;;;31.98;19.50;;;1.20;99.90;;;;;;6064002;23;95604;-73
2022/11/21 08:30:38;;;;;;;29.05;19.10;;;1.20;99.90;;;;;;6064706;23;93081;-73
2022/11/21 08:33:05;;;;;;;32.20;20.35;;;1.30;99.90;;;;;;6065995;23;92332;-73
2022/11/21 08:35:36;;;;;;;33.90;20.73;;;1.30;99.90;;;;;;6066933;23;92143;-73
2022/11/21 08:38:03;;;;;;;34.40;21.55;;;1.40;99.90;;;;;;6065893;23;93059;-73
2022/11/21 08:40:31;;;;;;;27.80;18.83;;;1.40;99.90;;;;;;6064059;23;92876;-73
2022/11/21 08:43:06;;;;;;;30.27;19.65;;;1.50;99.90;;;;;;6038927;23;95062;-73
2022/11/21 08:45:34;;;;;;;29.63;20.15;;;1.50;99.90;;;;;;6064833;23;92382;-73
2022/11/21 08:48:02;;;;;;;31.30;19.52;;;1.60;99.90;;;;;;6064321;23;93079;-73
2022/11/21 08:50:30;;;;;;;29.45;19.58;;;1.70;99.90;;;;;;6066219;23;93379;-73
2022/11/21 08:53:01;;;;;;;29.67;17.73;;;1.70;99.90;;;;;;6064822;23;92719;-73
2022/11/21 08:55:29;;;;;;;32.20;19.25;;;1.80;99.90;;;;;;6066411;23;92911;-73
2022/11/21 08:57:57;;;;;;;29.70;19.67;;;1.90;99.90;;;;;;6065884;23;93208;-73
2022/11/21 09:00:24;;;;;;;29.30;18.33;;;2.00;99.90;;;;;;6064294;23;95528;-73
2022/11/21 09:02:51;;;;;;;32.88;20.05;;;2.10;99.90;;;;;;6064786;23;92641;-73
2022/11/21 09:05:18;;;;;;;31.25;18.92;;;2.20;99.90;;;;;;6064154;23;92445;-73
2022/11/21 09:07:45;;;;;;;41.25;26.83;;;2.30;99.90;;;;;;6064332;23;95491;-73
2022/11/21 09:10:13;;;;;;;176.45;83.18;;;2.50;99.90;;;;;;6040446;23;95407;-73
2022/11/21 09:12:40;;;;;;;52.40;31.85;;;2.60;99.90;;;;;;6066022;23;92407;-73
2022/11/21 09:18:06;;;;;;;25.80;17.75;;;2.90;99.90;;;;;;6065482;23;93161;-73
2022/11/21 09:20:39;;;;;;;27.73;20.20;;;3.20;99.90;;;;;;6063989;23;93159;-74
2022/11/21 09:23:09;;;;;;;28.47;21.10;;;3.40;99.90;;;;;;6064320;23;92378;-74
2022/11/21 09:25:36;;;;;;;24.08;15.88;;;3.60;99.90;;;;;;6064478;23;91766;-73
2022/11/21 09:28:05;;;;;;;24.98;17.02;;;3.60;99.90;;;;;;6065865;23;93199;-74
2022/11/21 09:30:32;;;;;;;20.73;14.70;;;3.70;99.90;;;;;;6065850;23;93051;-73
2022/11/21 09:33:03;;;;;;;25.23;17.13;;;3.80;99.90;;;;;;6064539;23;94840;-73
2022/11/21 09:35:31;;;;;;;24.98;18.95;;;3.90;99.90;;;;;;6066323;23;92660;-74
2022/11/21 09:37:58;;;;;;;23.35;18.25;;;3.90;99.90;;;;;;6065656;23;93309;-74
2022/11/21 09:40:27;;;;;;;27.35;19.55;;;3.90;99.90;;;;;;6065070;23;93141;-73
2022/11/21 09:43:30;;;;;;;29.25;22.08;;;4.00;99.90;;;;;;6065965;23;92421;-74
2022/11/21 09:46:12;;;;;;;26.27;17.35;;;4.00;99.90;;;;;;6066003;23;92352;-73
2022/11/21 09:48:53;;;;;;;51.65;45.80;;;4.00;99.90;;;;;;6064133;23;96093;-73
2022/11/21 09:51:21;;;;;;;37.53;31.58;;;4.00;99.90;;;;;;6065994;23;92883;-73
2022/11/21 09:53:52;;;;;;;38.47;29.65;;;4.00;99.90;;;;;;6065949;23;92320;-74
2022/11/21 09:56:22;;;;;;;29.33;24.67;;;4.10;99.90;;;;;;6065631;23;92308;-73
2022/11/21 09:59:04;;;;;;;54.60;45.70;;;4.10;99.90;;;;;;6038595;23;98263;-74
2022/11/21 10:01:31;;;;;;;43.92;36.47;;;4.20;99.90;;;;;;6065355;23;95361;-74
2022/11/21 10:04:01;;;;;;;41.10;34.92;;;4.30;99.90;;;;;;6065806;23;92573;-74
2022/11/21 10:06:41;;;;;;;28.90;20.08;;;4.30;99.90;;;;;;6063713;23;92503;-73
2022/11/21 10:09:38;;;;;;;32.47;23.38;;;4.40;99.90;;;;;;6064157;23;93234;-74
2022/11/21 10:12:36;;;;;;;92.85;64.50;;;4.50;99.90;;;;;;6063943;23;95613;-74
2022/11/21 10:15:22;;;;;;;62.95;42.58;;;4.40;99.90;;;;;;6065844;23;92361;-74
2022/11/21 10:17:55;;;;;;;61.78;39.38;;;4.30;99.90;;;;;;6064905;23;92236;-74
2022/11/21 10:20:31;;;;;;;67.82;41.00;;;4.10;99.90;;;;;;6065201;23;93088;-74
2022/11/21 10:23:16;;;;;;;198.93;100.40;;;4.10;99.90;;;;;;6065550;23;93144;-74
2022/11/21 10:26:03;;;;;;;75.45;46.22;;;4.10;99.90;;;;;;6063744;23;94813;-74
2022/11/21 10:28:40;;;;;;;50.30;38.38;;;4.20;99.90;;;;;;6065307;23;92326;-74
2022/11/21 10:31:13;;;;;;;37.70;30.42;;;4.20;99.90;;;;;;6063660;23;96877;-74
2022/11/21 10:33:41;;;;;;;31.10;24.10;;;4.20;99.90;;;;;;6065781;23;92265;-74
2022/11/21 10:36:32;;;;;;;31.80;24.42;;;4.30;99.90;;;;;;6040556;23;92394;-74
2022/11/21 10:39:12;;;;;;;40.63;36.22;;;4.40;99.90;;;;;;6064157;23;92487;-74
2022/11/21 10:41:50;;;;;;;28.23;21.85;;;4.40;99.90;;;;;;6065098;23;93155;-74
2022/11/21 10:47:26;;;;;;;29.17;21.83;;;4.50;99.90;;;;;;6064047;23;92373;-74
2022/11/21 10:50:25;;;;;;;24.15;17.35;;;4.50;99.90;;;;;;6066000;23;92747;-74
2022/11/21 10:56:17;;;;;;;29.10;18.98;;;4.80;99.90;;;;;;6063745;23;97970;-74
2022/11/21 10:58:46;;;;;;;24.40;17.95;;;4.90;99.90;;;;;;6063412;23;92827;-74
2022/11/21 11:01:27;;;;;;;25.42;16.92;;;4.80;99.90;;;;;;6063640;23;92728;-74
2022/11/21 11:04:24;;;;;;;24.35;17.90;;;4.90;99.90;;;;;;6063995;23;93138;-74
2022/11/21 11:06:55;;;;;;;19.77;14.70;;;5.00;99.90;;;;;;6049093;23;92981;-74
2022/11/21 11:09:25;;;;;;;23.13;16.27;;;4.90;99.90;;;;;;6065263;23;92414;-74
2022/11/21 11:11:52;;;;;;;21.30;15.35;;;5.00;99.90;;;;;;6066002;23;91606;-74
2022/11/21 11:14:32;;;;;;;24.13;15.18;;;5.00;99.90;;;;;;6065260;23;93299;-74
2022/11/21 11:16:59;;;;;;;23.77;16.10;;;5.00;99.90;;;;;;6063721;23;92933;-74
2022/11/21 11:19:28;;;;;;;19.83;14.18;;;5.00;99.90;;;;;;6062290;23;94786;-74
2022/11/21 11:22:01;;;;;;;20.65;14.32;;;5.10;99.90;;;;;;6064127;23;92394;-74
2022/11/21 11:24:28;;;;;;;22.23;14.93;;;5.10;99.90;;;;;;6064994;23;92311;-74
2022/11/21 11:27:02;;;;;;;20.65;15.50;;;5.10;99.90;;;;;;6063610;23;95529;-74
2022/11/21 11:29:30;;;;;;;;;;;5.20;99.90;;;;;;6065777;23;92718;-74
2022/11/21 11:31:57;;;;;;;19.08;13.15;;;5.10;99.90;;;;;;6090285;23;92482;-74
2022/11/21 11:34:41;;;;;;;22.38;16.70;;;5.00;99.90;;;;;;6063348;23;93445;-74
2022/11/21 11:37:29;;;;;;;20.23;14.50;;;5.10;99.90;;;;;;6065677;23;92890;-74
2022/11/21 11:40:17;;;;;;;19.30;12.93;;;5.10;99.90;;;;;;6063620;23;93012;-74
2022/11/21 11:48:39;;;;;;;17.27;12.77;;;5.10;99.90;;;;;;6065977;23;95205;-74
2022/11/21 11:51:33;;;;;;;18.83;14.20;;;5.00;99.90;;;;;;6064967;23;92429;-74
2022/11/21 11:54:14;;;;;;;19.42;14.63;;;4.90;99.90;;;;;;6065063;23;92417;-74
2022/11/21 11:56:42;;;;;;;18.95;15.05;;;4.90;99.90;;;;;;6064410;23;92489;-74
2022/11/21 11:59:09;;;;;;;18.63;14.75;;;4.80;99.90;;;;;;6065868;23;102043;-74
2022/11/21 12:01:45;;;;;;;19.05;13.93;;;4.80;99.90;;;;;;6066331;23;92778;-74
2022/11/21 12:04:16;;;;;;;17.65;13.07;;;4.70;99.90;;;;;;6041161;23;91615;-74
2022/11/21 12:06:58;;;;;;;18.17;13.88;;;4.70;99.90;;;;;;6064387;23;95911;-74
2022/11/21 12:10:00;;;;;;;17.90;12.75;;;4.60;99.90;;;;;;6064148;23;95530;-74
2022/11/21 12:12:41;;;;;;;17.40;12.23;;;4.50;99.90;;;;;;6064959;23;94709;-74
2022/11/21 12:18:19;;;;;;;17.63;11.43;;;4.50;99.90;;;;;;6066039;23;93272;-74
2022/11/21 12:20:58;;;;;;;17.65;12.80;;;4.50;99.90;;;;;;6064489;23;93043;-74
2022/11/21 12:23:34;;;;;;;23.33;14.73;;;4.60;99.90;;;;;;6066362;23;92307;-74
2022/11/21 12:26:38;;;;;;;17.65;11.70;;;4.60;99.90;;;;;;6064829;23;92449;-74
2022/11/21 12:29:49;;;;;;;14.70;10.48;;;4.70;99.90;;;;;;6066162;23;92413;-74
2022/11/21 12:32:55;;;;;;;15.75;11.82;;;4.80;99.90;;;;;;6066590;23;92835;-74
2022/11/21 12:35:50;;;;;;;15.55;11.30;;;4.90;99.90;;;;;;6064498;23;92505;-74
2022/11/21 12:38:54;;;;;;;17.80;10.77;;;5.10;99.90;;;;;;6066215;23;92439;-74
2022/11/21 12:44:45;;;;;;;14.32;10.50;;;5.30;99.90;;;;;;6064413;23;97980;-74
2022/11/21 12:54:28;;;;;;;13.93;10.50;;;5.40;99.90;;;;;;6066257;23;92375;-74
2022/11/21 12:56:42;;;;;;;18.88;9.77;;;5.50;99.90;;;;;;6064453;23;93947;-74
2022/11/21 12:59:13;;;;;;;14.10;9.77;;;5.50;99.90;;;;;;6066548;23;92552;-74
2022/11/21 13:02:07;;;;;;;16.48;12.05;;;5.50;99.90;;;;;;6065101;23;91730;-74
2022/11/21 13:04:38;;;;;;;13.40;10.80;;;5.60;99.90;;;;;;6065947;23;92376;-74
2022/11/21 13:07:06;;;;;;;15.95;12.55;;;5.60;99.90;;;;;;6065962;23;93031;-74
2022/11/21 13:09:45;;;;;;;16.05;11.20;;;5.50;99.90;;;;;;6063144;23;94817;-74
2022/11/21 13:12:21;;;;;;;23.25;13.35;;;5.60;99.90;;;;;;6065825;23;92880;-74
2022/11/21 13:15:09;;;;;;;18.85;12.48;;;5.60;99.90;;;;;;6064234;23;93054;-74
2022/11/21 13:17:43;;;;;;;25.42;16.25;;;5.70;99.90;;;;;;6064095;23;92530;-74
2022/11/21 13:20:19;;;;;;;19.75;13.13;;;5.70;99.90;;;;;;6066211;23;93247;-74
2022/11/21 13:22:46;;;;;;;23.85;18.55;;;5.70;99.90;;;;;;6065999;23;92381;-74
2022/11/21 13:25:39;;;;;;;20.38;15.05;;;5.70;99.90;;;;;;6063916;23;95586;-74
2022/11/21 13:28:12;;;;;;;22.17;15.15;;;5.80;99.90;;;;;;6064572;23;91890;-74
2022/11/21 13:30:50;;;;;;;18.05;13.65;;;5.80;99.90;;;;;;6063862;23;92528;-74